createdAt,value
2022-12-27T00:01:31.032Z,101415.50
2022-12-27T00:03:57.769Z,101399.72
2022-12-27T00:06:25.756Z,101408.41
2022-12-27T00:08:52.940Z,101414.03
2022-12-27T00:11:22.212Z,101414.66
2022-12-27T00:13:49.136Z,101362.13
2022-12-27T00:16:17.817Z,101424.91
2022-12-27T00:18:45.037Z,101417.44
2022-12-27T00:21:12.852Z,101410.66
2022-12-27T00:23:43.393Z,101376.28
2022-12-27T00:26:15.765Z,101404.53
2022-12-27T00:28:42.659Z,101413.50
2022-12-27T00:31:09.196Z,101389.72
2022-12-27T00:33:37.525Z,101401.78
2022-12-27T00:36:05.847Z,101407.53
2022-12-27T00:38:32.576Z,101408.84
2022-12-27T00:40:59.400Z,101407.97
2022-12-27T00:43:26.032Z,101412.84
2022-12-27T00:45:52.939Z,101355.28
2022-12-27T00:48:19.470Z,101416.25
2022-12-27T00:50:46.058Z,101416.75
2022-12-27T00:53:12.793Z,101417.16
2022-12-27T00:55:42.699Z,101426.28
2022-12-27T00:58:09.864Z,101418.41
2022-12-27T01:00:36.549Z,101418.03
2022-12-27T01:03:03.305Z,101430.59
2022-12-27T01:05:30.034Z,101379.16
2022-12-27T01:07:56.542Z,101393.75
2022-12-27T01:10:23.268Z,101430.84
2022-12-27T01:12:49.764Z,101392.50
2022-12-27T01:15:16.199Z,101421.78
2022-12-27T01:17:42.690Z,101417.56
2022-12-27T01:20:09.418Z,101436.72
2022-12-27T01:22:36.164Z,101410.19
2022-12-27T01:25:02.687Z,101445.22
2022-12-27T01:27:29.142Z,101445.56
2022-12-27T01:29:55.654Z,101448.59
2022-12-27T01:32:22.228Z,101444.44
2022-12-27T01:34:50.383Z,101455.50
2022-12-27T01:37:17.207Z,101418.19
2022-12-27T01:39:44.247Z,101439.28
2022-12-27T01:42:38.907Z,101452.88
2022-12-27T01:45:18.961Z,101454.28
2022-12-27T01:48:31.702Z,101434.72
2022-12-27T01:51:01.568Z,101448.47
2022-12-27T01:53:34.243Z,101430.47
2022-12-27T01:56:06.587Z,101471.09
2022-12-27T01:58:40.019Z,101429.06
2022-12-27T02:01:11.317Z,101433.78
2022-12-27T02:03:43.228Z,101481.69
2022-12-27T02:06:11.632Z,101478.06
2022-12-27T02:08:49.122Z,101449.34
2022-12-27T02:11:16.931Z,101477.34
2022-12-27T02:13:45.107Z,101473.84
2022-12-27T02:16:19.564Z,101427.34
2022-12-27T02:18:46.304Z,101473.44
2022-12-27T02:21:31.510Z,101486.88
2022-12-27T02:24:11.918Z,101441.84
2022-12-27T02:26:49.055Z,101456.69
2022-12-27T02:29:24.737Z,101484.34
2022-12-27T02:32:04.057Z,101486.31
2022-12-27T02:34:38.104Z,101479.53
2022-12-27T02:37:08.533Z,101449.19
2022-12-27T02:39:38.240Z,101459.53
2022-12-27T02:42:24.272Z,101468.41
2022-12-27T02:45:09.345Z,101482.38
2022-12-27T02:47:55.010Z,101444.97
2022-12-27T02:50:40.071Z,101449.88
2022-12-27T02:53:11.659Z,101479.34
2022-12-27T02:56:27.751Z,101466.63
2022-12-27T02:59:18.747Z,101479.34
2022-12-27T03:02:23.007Z,101477.22
2022-12-27T03:05:08.460Z,101470.97
2022-12-27T03:07:34.854Z,101469.31
2022-12-27T03:10:29.569Z,101477.41
2022-12-27T03:13:38.385Z,101469.44
2022-12-27T03:16:26.133Z,101482.13
2022-12-27T03:19:12.900Z,101450.84
2022-12-27T03:22:05.152Z,101482.47
2022-12-27T03:24:53.699Z,101430.16
2022-12-27T03:27:28.371Z,101457.06
2022-12-27T03:30:15.157Z,101489.47
2022-12-27T03:33:05.844Z,101496.88
2022-12-27T03:35:38.410Z,101466.41
2022-12-27T03:38:05.781Z,101477.63
2022-12-27T03:41:16.377Z,101502.63
2022-12-27T03:43:42.977Z,101504.00
2022-12-27T03:46:46.312Z,101508.19
2022-12-27T03:49:34.659Z,101515.81
2022-12-27T03:52:24.599Z,101494.59
2022-12-27T03:54:52.059Z,101496.13
2022-12-27T03:57:21.288Z,101509.19
2022-12-27T03:59:48.127Z,101496.72
2022-12-27T04:02:14.850Z,101495.13
2022-12-27T04:04:41.795Z,101520.97
2022-12-27T04:07:08.681Z,101511.97
2022-12-27T04:09:53.856Z,101522.31
2022-12-27T04:12:39.043Z,101522.59
2022-12-27T04:15:24.424Z,101454.44
2022-12-27T04:18:09.660Z,101490.81
2022-12-27T04:20:54.787Z,101492.25
2022-12-27T04:23:39.960Z,101528.69
2022-12-27T04:26:25.314Z,101524.88
2022-12-27T04:29:10.457Z,101527.38
2022-12-27T04:31:55.616Z,101500.78
2022-12-27T04:34:40.718Z,101524.38
2022-12-27T04:37:07.549Z,101515.28
2022-12-27T04:39:34.202Z,101525.28
2022-12-27T04:42:19.460Z,101517.44
2022-12-27T04:45:04.358Z,101521.19
2022-12-27T04:47:50.084Z,101479.97
2022-12-27T04:50:44.473Z,101524.78
2022-12-27T04:53:31.829Z,101477.16
2022-12-27T04:55:58.553Z,101503.53
2022-12-27T04:58:25.561Z,101512.56
2022-12-27T05:01:14.309Z,101527.75
2022-12-27T05:03:41.516Z,101498.47
2022-12-27T05:06:08.294Z,101522.72
2022-12-27T05:08:53.604Z,101500.78
2022-12-27T05:11:38.675Z,101542.31
2022-12-27T05:14:11.380Z,101541.94
2022-12-27T05:16:39.954Z,101551.34
2022-12-27T05:19:07.995Z,101558.28
2022-12-27T05:22:05.987Z,101557.03
2022-12-27T05:24:51.277Z,101555.94
2022-12-27T05:27:18.359Z,101552.66
2022-12-27T05:29:45.852Z,101553.50
2022-12-27T05:32:13.638Z,101557.47
2022-12-27T05:34:40.826Z,101540.88
2022-12-27T05:37:07.626Z,101561.28
2022-12-27T05:39:34.090Z,101573.66
2022-12-27T05:42:00.744Z,101535.75
2022-12-27T05:44:27.247Z,101586.72
2022-12-27T05:46:54.681Z,101581.28
2022-12-27T05:49:21.368Z,101546.06
2022-12-27T05:51:47.878Z,101540.78
2022-12-27T05:54:14.626Z,101585.88
2022-12-27T05:56:41.245Z,101549.44
2022-12-27T05:59:08.109Z,101576.59
2022-12-27T06:01:34.851Z,101581.28
2022-12-27T06:04:01.445Z,101581.53
2022-12-27T06:06:28.861Z,101591.84
2022-12-27T06:08:55.475Z,101577.00
2022-12-27T06:11:22.239Z,101564.56
2022-12-27T06:13:51.519Z,101591.06
2022-12-27T06:16:19.283Z,101587.41
2022-12-27T06:18:45.961Z,101587.31
2022-12-27T06:21:15.242Z,101593.81
2022-12-27T06:23:44.607Z,101586.72
2022-12-27T06:26:14.522Z,101580.03
2022-12-27T06:28:41.237Z,101590.34
2022-12-27T06:31:07.744Z,101617.41
2022-12-27T06:33:35.274Z,101610.13
2022-12-27T06:36:13.312Z,101612.31
2022-12-27T06:38:40.590Z,101608.03
2022-12-27T06:41:09.143Z,101578.38
2022-12-27T06:43:36.135Z,101621.50
2022-12-27T06:46:04.834Z,101577.13
2022-12-27T06:48:31.721Z,101628.41
2022-12-27T06:50:58.782Z,101593.06
2022-12-27T06:53:25.223Z,101585.75
2022-12-27T06:55:51.920Z,101619.28
2022-12-27T06:58:18.429Z,101638.03
2022-12-27T07:00:44.991Z,101595.13
2022-12-27T07:03:11.528Z,101637.91
2022-12-27T07:05:38.214Z,101593.03
2022-12-27T07:08:05.406Z,101643.22
2022-12-27T07:10:32.026Z,101609.84
2022-12-27T07:12:58.888Z,101630.44
2022-12-27T07:15:25.380Z,101558.72
2022-12-27T07:17:52.240Z,101637.97
2022-12-27T07:20:18.791Z,101647.38
2022-12-27T07:22:45.359Z,101645.22
2022-12-27T07:25:11.844Z,101616.97
2022-12-27T07:27:38.364Z,101654.28
2022-12-27T07:30:05.634Z,101654.03
2022-12-27T07:32:32.352Z,101660.63
2022-12-27T07:34:59.026Z,101664.03
2022-12-27T07:37:25.499Z,101664.22
2022-12-27T07:39:52.002Z,101659.22
2022-12-27T07:42:18.522Z,101660.66
2022-12-27T07:44:45.005Z,101630.97
2022-12-27T07:47:11.486Z,101690.38
2022-12-27T07:49:37.968Z,101673.63
2022-12-27T07:52:04.482Z,101690.84
2022-12-27T07:54:30.927Z,101689.56
2022-12-27T07:56:57.412Z,101697.63
2022-12-27T07:59:23.954Z,101694.72
2022-12-27T08:02:05.689Z,101701.28
2022-12-27T08:04:34.903Z,101704.59
2022-12-27T08:07:07.557Z,101702.69
2022-12-27T08:09:36.950Z,101695.53
2022-12-27T08:12:03.904Z,101674.53
2022-12-27T08:14:30.567Z,101656.47
2022-12-27T08:17:02.174Z,101715.56
2022-12-27T08:19:28.647Z,101714.69
2022-12-27T08:21:55.132Z,101717.53
2022-12-27T08:24:21.596Z,101724.19
2022-12-27T08:26:48.431Z,101720.00
2022-12-27T08:29:14.889Z,101672.97
2022-12-27T08:31:41.675Z,101723.13
2022-12-27T08:34:08.221Z,101619.06
2022-12-27T08:36:54.583Z,101727.59
2022-12-27T08:39:21.218Z,101680.22
2022-12-27T08:41:47.994Z,101711.28
2022-12-27T08:44:15.389Z,101730.34
2022-12-27T08:46:41.872Z,101728.88
2022-12-27T08:49:08.389Z,101741.03
2022-12-27T08:51:40.759Z,101712.25
2022-12-27T08:54:07.953Z,101703.81
2022-12-27T08:56:34.450Z,101729.50
2022-12-27T08:59:01.155Z,101689.94
2022-12-27T09:01:27.992Z,101684.16
2022-12-27T09:03:54.590Z,101733.28
2022-12-27T09:06:23.113Z,101729.72
2022-12-27T09:08:51.020Z,101733.72
2022-12-27T09:11:20.086Z,101736.25
2022-12-27T09:13:47.084Z,101725.69
2022-12-27T09:16:18.874Z,101711.63
2022-12-27T09:18:48.875Z,101739.66
2022-12-27T09:21:17.090Z,101728.28
2022-12-27T09:23:44.428Z,101727.72
2022-12-27T09:26:15.948Z,101729.47
2022-12-27T09:28:42.923Z,101739.34
2022-12-27T09:31:10.880Z,101727.44
2022-12-27T09:33:38.073Z,101756.22
2022-12-27T09:36:11.561Z,101747.84
2022-12-27T09:38:38.631Z,101747.97
2022-12-27T09:41:19.291Z,101711.97
2022-12-27T09:44:04.035Z,101743.34
2022-12-27T09:46:40.987Z,101745.75
2022-12-27T09:49:20.595Z,101721.09
2022-12-27T09:51:51.935Z,101751.63
2022-12-27T09:54:23.900Z,101736.94
2022-12-27T09:59:40.275Z,101737.03
2022-12-27T10:02:21.672Z,101743.97
2022-12-27T10:07:57.197Z,101733.19
2022-12-27T10:10:35.110Z,101700.69
2022-12-27T10:13:20.260Z,101739.31
2022-12-27T10:16:18.121Z,101741.25
2022-12-27T10:19:07.677Z,101741.75
2022-12-27T10:21:36.208Z,101725.88
2022-12-27T10:24:11.770Z,101743.63
2022-12-27T10:26:38.892Z,101714.25
2022-12-27T10:29:17.794Z,101742.03
2022-12-27T10:31:44.484Z,101752.47
2022-12-27T10:34:15.295Z,101737.72
2022-12-27T10:36:42.353Z,101745.16
2022-12-27T10:39:29.938Z,101742.03
2022-12-27T10:41:59.521Z,101748.38
2022-12-27T10:44:26.065Z,101751.09
2022-12-27T10:46:54.075Z,101736.34
2022-12-27T10:49:29.300Z,101742.50
2022-12-27T10:51:59.104Z,101745.47
2022-12-27T10:54:28.039Z,101736.56
2022-12-27T10:56:56.124Z,101748.16
2022-12-27T10:59:27.957Z,101742.09
2022-12-27T11:02:01.685Z,101748.50
2022-12-27T11:04:30.505Z,101737.59
2022-12-27T11:07:01.756Z,101738.00
2022-12-27T11:09:37.918Z,101751.78
2022-12-27T11:12:24.816Z,101735.00
2022-12-27T11:15:06.304Z,101742.13
2022-12-27T11:17:42.111Z,101731.00
2022-12-27T11:20:12.452Z,101742.44
2022-12-27T11:22:48.633Z,101722.78
2022-12-27T11:25:16.293Z,101740.09
2022-12-27T11:27:56.076Z,101742.81
2022-12-27T11:30:27.471Z,101746.09
2022-12-27T11:32:54.095Z,101748.41
2022-12-27T11:35:21.845Z,101751.31
2022-12-27T11:37:49.152Z,101750.84
2022-12-27T11:40:30.576Z,101755.88
2022-12-27T11:43:08.218Z,101720.31
2022-12-27T11:45:38.079Z,101758.34
2022-12-27T11:48:14.859Z,101750.84
2022-12-27T11:50:55.938Z,101753.97
2022-12-27T11:54:00.147Z,101722.13
2022-12-27T11:56:28.980Z,101735.09
2022-12-27T11:59:20.466Z,101768.81
2022-12-27T12:01:56.089Z,101754.09
2022-12-27T12:04:48.746Z,101741.44
2022-12-27T12:07:18.342Z,101737.78
2022-12-27T12:10:02.118Z,101738.06
2022-12-27T12:12:43.200Z,101733.81
2022-12-27T12:15:39.173Z,101742.00
2022-12-27T12:18:12.423Z,101733.31
2022-12-27T12:20:39.069Z,101731.06
2022-12-27T12:23:05.546Z,101727.19
2022-12-27T12:26:08.937Z,101726.72
2022-12-27T12:28:58.735Z,101718.16
2022-12-27T12:31:49.472Z,101730.91
2022-12-27T12:34:51.159Z,101725.22
2022-12-27T12:37:40.875Z,101732.66
2022-12-27T12:40:29.463Z,101745.72
2022-12-27T12:42:58.944Z,101731.69
2022-12-27T12:46:03.307Z,101714.44
2022-12-27T12:48:58.109Z,101720.53
2022-12-27T12:51:38.807Z,101678.72
2022-12-27T12:54:14.351Z,101697.75
2022-12-27T12:56:54.523Z,101704.47
2022-12-27T12:59:59.512Z,101691.00
2022-12-27T13:02:35.417Z,101687.78
2022-12-27T13:05:13.597Z,101687.91
2022-12-27T13:08:09.948Z,101689.63
2022-12-27T13:10:57.644Z,101687.38
2022-12-27T13:13:34.270Z,101644.94
2022-12-27T13:16:24.274Z,101679.41
2022-12-27T13:19:37.303Z,101678.78
2022-12-27T13:22:16.520Z,101676.97
2022-12-27T13:25:08.450Z,101679.50
2022-12-27T13:27:41.129Z,101670.31
2022-12-27T13:30:20.154Z,101672.47
2022-12-27T13:33:01.921Z,101670.97
2022-12-27T13:35:35.623Z,101671.81
2022-12-27T13:38:26.673Z,101672.19
2022-12-27T13:41:14.561Z,101670.84
2022-12-27T13:44:01.544Z,101674.66
2022-12-27T13:46:40.034Z,101671.31
2022-12-27T13:49:27.776Z,101662.75
2022-12-27T13:52:02.639Z,101655.09
2022-12-27T13:54:56.557Z,101664.56
2022-12-27T13:57:26.232Z,101652.44
2022-12-27T14:00:04.357Z,101659.13
2022-12-27T14:02:37.425Z,101657.97
2022-12-27T14:05:19.445Z,101663.69
2022-12-27T14:08:04.243Z,101659.41
2022-12-27T14:10:37.645Z,101656.09
2022-12-27T14:13:08.769Z,101651.22
2022-12-27T14:15:41.340Z,101648.13
2022-12-27T14:18:23.014Z,101657.09
2022-12-27T14:21:01.029Z,101651.88
2022-12-27T14:23:40.417Z,101650.66
2022-12-27T14:26:25.278Z,101648.72
2022-12-27T14:28:59.760Z,101642.88
2022-12-27T14:31:51.198Z,101646.63
2022-12-27T14:34:44.157Z,101640.75
2022-12-27T14:38:05.266Z,101588.31
2022-12-27T14:40:35.164Z,101633.69
2022-12-27T14:43:23.513Z,101627.28
2022-12-27T14:46:29.520Z,101623.69
2022-12-27T14:49:17.396Z,101625.50
2022-12-27T14:52:03.407Z,101620.97
2022-12-27T14:54:54.613Z,101612.44
2022-12-27T14:57:42.623Z,101605.78
2022-12-27T15:00:15.830Z,101580.34
2022-12-27T15:02:54.528Z,101604.09
2022-12-27T15:05:58.455Z,101596.44
2022-12-27T15:08:43.702Z,101595.75
2022-12-27T15:11:31.505Z,101551.88
2022-12-27T15:14:19.704Z,101590.41
2022-12-27T15:16:56.413Z,101582.69
2022-12-27T15:19:28.788Z,101589.28
2022-12-27T15:21:58.405Z,101593.34
2022-12-27T15:24:45.120Z,101594.13
2022-12-27T15:27:20.384Z,101560.59
2022-12-27T15:30:14.864Z,101587.44
2022-12-27T15:32:48.256Z,101591.06
2022-12-27T15:35:17.771Z,101587.44
2022-12-27T15:37:47.412Z,101573.13
2022-12-27T15:40:23.212Z,101601.66
2022-12-27T15:43:10.815Z,101593.28
2022-12-27T15:45:53.326Z,101590.09
2022-12-27T15:48:57.358Z,101587.94
2022-12-27T15:51:45.898Z,101588.13
2022-12-27T15:54:30.734Z,101581.22
2022-12-27T15:57:20.522Z,101579.50
2022-12-27T15:59:51.140Z,101568.94
2022-12-27T16:02:24.749Z,101547.88
2022-12-27T16:05:22.155Z,101566.72
2022-12-27T16:08:29.351Z,101565.13
2022-12-27T16:10:56.565Z,101562.34
2022-12-27T16:13:41.820Z,101572.34
2022-12-27T16:16:38.570Z,101570.75
2022-12-27T16:19:18.193Z,101570.59
2022-12-27T16:21:46.071Z,101523.31
2022-12-27T16:24:17.013Z,101558.97
2022-12-27T16:26:52.104Z,101564.22
2022-12-27T16:29:26.466Z,101559.53
2022-12-27T16:32:13.159Z,101566.53
2022-12-27T16:34:40.365Z,101558.19
2022-12-27T16:37:22.560Z,101548.38
2022-12-27T16:40:04.862Z,101522.09
2022-12-27T16:42:54.109Z,101568.59
2022-12-27T16:45:39.272Z,101558.88
2022-12-27T16:48:20.787Z,101559.97
2022-12-27T16:51:13.401Z,101557.69
2022-12-27T16:54:01.194Z,101544.75
2022-12-27T16:56:39.022Z,101543.59
2022-12-27T16:59:51.044Z,101550.69
2022-12-27T17:02:32.353Z,101552.13
2022-12-27T17:05:01.477Z,101545.81
2022-12-27T17:07:50.287Z,101560.66
2022-12-27T17:10:30.160Z,101540.69
2022-12-27T17:13:20.938Z,101546.31
2022-12-27T17:16:28.001Z,101547.69
2022-12-27T17:19:00.687Z,101538.88
2022-12-27T17:21:33.013Z,101535.66
2022-12-27T17:24:11.514Z,101534.78
2022-12-27T17:26:59.886Z,101543.91
2022-12-27T17:29:35.989Z,101537.25
2022-12-27T17:32:20.560Z,101540.97
2022-12-27T17:34:59.548Z,101540.16
2022-12-27T17:37:38.244Z,101531.94
2022-12-27T17:40:10.735Z,101528.72
2022-12-27T17:43:17.767Z,101515.59
2022-12-27T17:45:55.704Z,101523.94
2022-12-27T17:48:29.754Z,101495.25
2022-12-27T17:51:01.549Z,101523.63
2022-12-27T17:53:47.341Z,101518.63
2022-12-27T17:56:38.554Z,101524.22
2022-12-27T17:59:08.070Z,101526.50
2022-12-27T18:01:49.039Z,101515.81
2022-12-27T18:04:29.181Z,101535.38
2022-12-27T18:06:58.306Z,101535.84
2022-12-27T18:09:37.075Z,101522.09
2022-12-27T18:12:13.966Z,101512.16
2022-12-27T18:14:40.888Z,101490.31
2022-12-27T18:17:09.770Z,101510.25
2022-12-27T18:19:36.474Z,101518.09
2022-12-27T18:22:03.433Z,101513.44
2022-12-27T18:24:32.356Z,101516.44
2022-12-27T18:27:07.275Z,101517.13
2022-12-27T18:29:34.262Z,101520.00
2022-12-27T18:32:04.626Z,101503.84
2022-12-27T18:34:51.491Z,101470.84
2022-12-27T18:37:21.125Z,101497.00
2022-12-27T18:40:03.151Z,101502.94
2022-12-27T18:42:51.456Z,101487.31
2022-12-27T18:45:31.679Z,101490.72
2022-12-27T18:48:02.055Z,101482.59
2022-12-27T18:50:30.591Z,101443.94
2022-12-27T18:53:33.358Z,101492.22
2022-12-27T18:56:05.212Z,101491.69
2022-12-27T18:58:32.570Z,101484.03
2022-12-27T19:01:19.714Z,101483.84
2022-12-27T19:04:14.377Z,101484.69
2022-12-27T19:06:53.269Z,101489.03
2022-12-27T19:09:21.069Z,101482.06
2022-12-27T19:12:02.590Z,101474.53
2022-12-27T19:14:47.790Z,101416.47
2022-12-27T19:17:26.483Z,101477.00
2022-12-27T19:19:54.823Z,101444.19
2022-12-27T19:22:41.692Z,101470.09
2022-12-27T19:25:28.162Z,101476.56
2022-12-27T19:28:05.781Z,101467.44
2022-12-27T19:30:34.248Z,101473.22
2022-12-27T19:33:02.656Z,101468.28
2022-12-27T19:35:29.276Z,101463.38
2022-12-27T19:37:57.241Z,101455.50
2022-12-27T19:40:24.220Z,101416.09
2022-12-27T19:42:50.689Z,101439.19
2022-12-27T19:45:18.020Z,101442.66
2022-12-27T19:47:45.359Z,101398.09
2022-12-27T19:50:12.029Z,101404.41
2022-12-27T19:52:39.021Z,101409.81
2022-12-27T19:55:08.354Z,101428.28
2022-12-27T19:57:34.972Z,101431.75
2022-12-27T20:00:05.357Z,101395.53
2022-12-27T20:02:35.197Z,101427.63
2022-12-27T20:05:02.031Z,101421.66
2022-12-27T20:07:28.490Z,101390.69
2022-12-27T20:09:55.011Z,101365.50
2022-12-27T20:12:21.774Z,101384.97
2022-12-27T20:14:48.640Z,101398.09
2022-12-27T20:17:15.589Z,101396.91
2022-12-27T20:19:42.093Z,101415.53
2022-12-27T20:22:08.569Z,101407.34
2022-12-27T20:24:36.932Z,101399.69
2022-12-27T20:27:04.191Z,101374.34
2022-12-27T20:29:30.761Z,101394.97
2022-12-27T20:31:58.259Z,101379.47
2022-12-27T20:34:24.829Z,101413.28
2022-12-27T20:36:54.995Z,101383.75
2022-12-27T20:39:21.591Z,101367.53
2022-12-27T20:41:48.087Z,101339.63
2022-12-27T20:44:15.317Z,101388.91
2022-12-27T20:46:41.914Z,101390.44
2022-12-27T20:49:08.694Z,101381.91
2022-12-27T20:51:35.216Z,101331.28
2022-12-27T20:54:02.864Z,101356.56
2022-12-27T20:56:29.840Z,101354.41
2022-12-27T20:58:57.371Z,101375.97
2022-12-27T21:01:25.659Z,101300.38
2022-12-27T21:03:53.767Z,101382.97
2022-12-27T21:06:22.908Z,101373.56
2022-12-27T21:08:56.190Z,101360.63
2022-12-27T21:11:33.129Z,101376.25
2022-12-27T21:14:03.714Z,101372.25
2022-12-27T21:16:32.358Z,101365.56
2022-12-27T21:19:03.278Z,101348.59
2022-12-27T21:21:31.266Z,101311.78
2022-12-27T21:23:58.688Z,101351.47
2022-12-27T21:26:28.139Z,101346.59
2022-12-27T21:28:55.159Z,101336.06
2022-12-27T21:31:22.160Z,101350.00
2022-12-27T21:33:49.027Z,101345.25
2022-12-27T21:36:18.937Z,101338.63
2022-12-27T21:38:45.752Z,101325.91
2022-12-27T21:41:19.605Z,101335.66
2022-12-27T21:43:47.073Z,101329.06
2022-12-27T21:46:16.650Z,101320.28
2022-12-27T21:48:43.654Z,101320.91
2022-12-27T21:51:18.679Z,101325.25
2022-12-27T21:53:46.135Z,101297.91
2022-12-27T21:56:16.239Z,101315.81
2022-12-27T21:58:43.720Z,101318.97
2022-12-27T22:01:24.449Z,101307.69
2022-12-27T22:03:52.136Z,101323.22
2022-12-27T22:06:21.748Z,101316.66
2022-12-27T22:08:50.885Z,101316.81
2022-12-27T22:11:18.263Z,101273.38
2022-12-27T22:13:45.157Z,101298.00
2022-12-27T22:16:14.481Z,101304.78
2022-12-27T22:18:42.765Z,101274.50
2022-12-27T22:21:11.856Z,101301.69
2022-12-27T22:23:40.614Z,101296.19
2022-12-27T22:26:16.356Z,101299.13
2022-12-27T22:28:43.716Z,101297.16
2022-12-27T22:31:12.907Z,101282.41
2022-12-27T22:33:39.785Z,101284.63
2022-12-27T22:36:08.787Z,101276.75
2022-12-27T22:38:36.800Z,101270.97
2022-12-27T22:41:11.020Z,101236.34
2022-12-27T22:43:38.676Z,101261.44
2022-12-27T22:46:07.504Z,101232.69
2022-12-27T22:48:34.689Z,101191.38
2022-12-27T22:51:14.712Z,101249.00
2022-12-27T22:53:41.307Z,101209.56
2022-12-27T22:56:15.734Z,101205.22
2022-12-27T22:58:42.925Z,101235.34
2022-12-27T23:01:14.361Z,101219.13
2022-12-27T23:03:41.646Z,101226.41
2022-12-27T23:06:10.707Z,101225.78
2022-12-27T23:08:37.308Z,101173.09
2022-12-27T23:11:14.859Z,101206.44
2022-12-27T23:13:41.554Z,101204.44
2022-12-27T23:16:08.765Z,101189.41
2022-12-27T23:18:41.877Z,101177.88
2022-12-27T23:21:20.675Z,101198.31
2022-12-27T23:23:50.511Z,101174.84
2022-12-27T23:26:20.370Z,101180.13
2022-12-27T23:28:47.815Z,101119.19
2022-12-27T23:31:14.894Z,101149.09
2022-12-27T23:33:42.825Z,101149.69
2022-12-27T23:36:10.779Z,101130.13
2022-12-27T23:38:37.985Z,101136.69
2022-12-27T23:41:06.601Z,101139.19
2022-12-27T23:43:55.010Z,101126.66
2022-12-27T23:46:31.070Z,101127.53
2022-12-27T23:48:59.584Z,101116.72
2022-12-27T23:51:28.083Z,101111.19
2022-12-27T23:53:54.955Z,101114.34
2022-12-27T23:56:27.309Z,101099.72
2022-12-27T23:58:55.467Z,101083.38
